Time;durP1;ratioP1;P1;durP2;ratioP2;P2;SDS_P1;SDS_P2;PMS_P1;PMS_P2;Temp;Humidity;BMP_temperature;BMP_pressure;BME280_temperature;BME280_humidity;BME280_pressure;Samples;Min_cycle;Max_cycle;Signal;HPM_P1;HPM_P2
2023/07/04 00:00:44;;;;;;;17.90;16.17;;;;;;;26.17;74.15;99273.06;5033595;28;20194;-68
2023/07/04 00:03:10;;;;;;;17.83;16.00;;;;;;;26.14;74.33;99278.31;5032494;28;20215;-69
2023/07/04 00:05:38;;;;;;;17.47;15.57;;;;;;;26.11;74.17;99279.72;5033397;28;20194;-69
2023/07/04 00:08:05;;;;;;;19.20;16.87;;;;;;;26.08;74.88;99274.06;5033299;28;20280;-69
2023/07/04 00:10:32;;;;;;;16.93;14.83;;;;;;;26.12;74.52;99275.06;5031763;28;20331;-69
2023/07/04 00:12:59;;;;;;;16.03;14.57;;;;;;;26.16;74.61;99270.63;5033279;28;20251;-69
2023/07/04 00:15:25;;;;;;;16.43;14.70;;;;;;;26.24;74.04;99273.47;5033314;28;20201;-69
2023/07/04 00:17:53;;;;;;;16.00;14.30;;;;;;;26.31;73.91;99262.16;5033154;28;20267;-69
2023/07/04 00:20:20;;;;;;;17.50;15.80;;;;;;;26.37;73.44;99274.59;5032743;28;20225;-70
2023/07/04 00:22:47;;;;;;;17.50;15.87;;;;;;;26.33;74.33;99270.84;5032752;28;20259;-69
2023/07/04 00:25:13;;;;;;;18.40;15.20;;;;;;;26.28;74.47;99268.22;5032847;28;20283;-69
2023/07/04 00:27:40;;;;;;;16.87;14.87;;;;;;;26.17;75.14;99264.09;5033016;28;20197;-68
2023/07/04 00:30:09;;;;;;;17.83;15.93;;;;;;;26.12;75.04;99270.44;5033064;28;20197;-69
2023/07/04 00:32:36;;;;;;;17.07;15.30;;;;;;;26.05;75.68;99271.97;5032274;28;20225;-70
2023/07/04 00:35:06;;;;;;;15.27;13.90;;;;;;;26.02;76.29;99270.66;5032979;28;20193;-66
2023/07/04 00:37:33;;;;;;;15.27;13.70;;;;;;;26.08;75.48;99268.63;5032413;28;20251;-67
2023/07/04 00:40:01;;;;;;;15.17;13.67;;;;;;;26.09;75.79;99275.69;5031532;28;20217;-70
2023/07/04 00:42:29;;;;;;;15.67;14.27;;;;;;;26.05;75.60;99274.69;5031650;28;20197;-69
2023/07/04 00:44:58;;;;;;;15.97;13.57;;;;;;;26.02;76.06;99269.84;5032586;28;20201;-71
2023/07/04 00:47:33;;;;;;;14.10;12.90;;;;;;;26.05;76.18;99269.25;5031161;28;20673;-68
2023/07/04 00:50:07;;;;;;;14.00;12.77;;;;;;;26.07;75.85;99275.19;5032895;28;20197;-69
2023/07/04 00:52:38;;;;;;;14.00;12.80;;;;;;;26.08;75.58;99280.31;5032312;28;20219;-69
2023/07/04 00:55:09;;;;;;;14.07;12.87;;;;;;;26.00;76.43;99282.97;5032649;28;20232;-68
2023/07/04 00:57:37;;;;;;;14.50;13.30;;;;;;;26.03;75.84;99276.88;5031846;28;20243;-68
2023/07/04 01:00:15;;;;;;;13.77;12.63;;;;;;;26.05;75.63;99280.13;5032488;28;20311;-68
2023/07/04 01:02:45;;;;;;;12.83;11.70;;;;;;;26.09;75.44;99276.50;5032451;28;20185;-68
2023/07/04 01:05:14;;;;;;;13.93;12.60;;;;;;;26.08;75.56;99282.22;5032691;28;20276;-68
2023/07/04 01:07:50;;;;;;;13.97;12.67;;;;;;;26.04;75.82;99278.53;5031834;28;20274;-68
2023/07/04 01:10:21;;;;;;;13.10;11.80;;;;;;;26.07;75.50;99283.34;5032557;28;20199;-68
2023/07/04 01:12:48;;;;;;;14.10;12.87;;;;;;;26.10;75.61;99278.13;5032583;28;20185;-68
2023/07/04 01:15:15;;;;;;;13.37;12.07;;;;;;;26.10;75.33;99272.69;5032303;28;20206;-68
2023/07/04 01:17:42;;;;;;;13.23;11.90;;;;;;;26.11;75.05;99273.47;5031344;28;20248;-69
2023/07/04 01:20:15;;;;;;;12.30;11.10;;;;;;;26.08;75.10;99279.50;5031677;28;20759;-69
2023/07/04 01:22:52;;;;;;;13.93;12.43;;;;;;;26.04;75.28;99279.31;5032201;28;20228;-69
2023/07/04 01:25:29;;;;;;;15.60;12.00;;;;;;;25.98;75.27;99279.72;5031704;28;20259;-70
2023/07/04 01:28:03;;;;;;;20.60;13.23;;;;;;;25.91;75.21;99279.25;5012623;28;20539;-69
2023/07/04 01:30:31;;;;;;;13.77;11.83;;;;;;;25.86;75.40;99282.09;5012695;28;20285;-68
2023/07/04 01:32:59;;;;;;;13.40;11.83;;;;;;;25.77;75.70;99283.88;5011917;28;20229;-69
2023/07/04 01:35:27;;;;;;;12.60;11.37;;;;;;;25.74;75.60;99279.84;5026179;28;20268;-69
2023/07/04 01:37:54;;;;;;;12.47;10.87;;;;;;;25.71;75.03;99285.06;5031586;28;20201;-69
2023/07/04 01:40:21;;;;;;;12.90;11.00;;;;;;;25.61;74.59;99288.81;5031945;28;20724;-69
2023/07/04 01:42:48;;;;;;;12.17;10.97;;;;;;;25.47;75.79;99284.44;5031327;28;20198;-70
2023/07/04 01:45:17;;;;;;;11.77;10.87;;;;;;;25.42;76.36;99281.78;5031685;28;20205;-70
2023/07/04 01:47:43;;;;;;;11.27;10.37;;;;;;;25.38;77.11;99286.19;5031914;28;20189;-70
2023/07/04 01:50:11;;;;;;;12.80;11.57;;;;;;;25.45;76.57;99281.19;5031691;28;20335;-70
2023/07/04 01:52:39;;;;;;;12.50;11.03;;;;;;;25.44;76.02;99291.25;5031129;28;20189;-71
2023/07/04 01:55:09;;;;;;;13.03;11.67;;;;;;;25.41;75.59;99301.94;5031839;28;20193;-71
2023/07/04 01:57:35;;;;;;;18.10;12.27;;;;;;;25.33;75.67;99291.72;5031835;28;20201;-71
2023/07/04 02:00:02;;;;;;;16.50;11.30;;;;;;;25.31;75.65;99297.44;5031870;28;20221;-71
2023/07/04 02:02:30;;;;;;;12.73;11.40;;;;;;;25.34;76.07;99301.50;5031006;28;20228;-71
2023/07/04 02:04:57;;;;;;;14.43;11.93;;;;;;;25.42;76.49;99293.47;5013655;28;20198;-71
2023/07/04 02:07:24;;;;;;;17.00;11.63;;;;;;;25.52;75.96;99298.72;5031583;28;20255;-71
2023/07/04 02:09:51;;;;;;;13.87;11.17;;;;;;;25.57;75.42;99297.84;5031463;28;20205;-71
2023/07/04 02:12:18;;;;;;;12.47;11.30;;;;;;;25.57;74.76;99300.56;5031813;28;20194;-71
2023/07/04 02:14:44;;;;;;;16.60;12.13;;;;;;;25.56;74.44;99298.97;5031218;28;20205;-71
2023/07/04 02:17:11;;;;;;;13.13;10.57;;;;;;;25.50;75.28;99300.13;5031395;28;20197;-71
2023/07/04 02:19:39;;;;;;;15.37;12.47;;;;;;;25.50;74.28;99295.50;5031535;28;20217;-70
2023/07/04 02:22:06;;;;;;;12.17;11.13;;;;;;;25.39;75.29;99299.50;5031347;28;20190;-71
2023/07/04 02:24:33;;;;;;;13.33;11.83;;;;;;;25.31;75.36;99302.09;5030556;28;20193;-69
2023/07/04 02:27:00;;;;;;;11.93;10.80;;;;;;;25.22;76.75;99301.09;5031185;28;20630;-72
2023/07/04 02:29:26;;;;;;;14.47;11.23;;;;;;;25.31;76.94;99293.94;5031484;28;20259;-69
2023/07/04 02:31:53;;;;;;;13.87;12.47;;;;;;;25.35;75.58;99301.19;5031270;28;20229;-69
2023/07/04 02:34:20;;;;;;;12.83;11.47;;;;;;;25.35;75.17;99297.69;5034521;28;20193;-72
2023/07/04 02:36:48;;;;;;;14.23;12.43;;;;;;;25.29;75.40;99301.56;5035277;28;20255;-69
2023/07/04 02:39:15;;;;;;;15.90;12.17;;;;;;;25.21;76.00;99307.66;5034263;28;20701;-69
2023/07/04 02:41:41;;;;;;;11.70;10.40;;;;;;;25.23;76.55;99306.25;5035101;28;20203;-69
2023/07/04 02:44:08;;;;;;;12.93;11.47;;;;;;;25.21;75.76;99316.63;5034629;28;20666;-69
2023/07/04 02:46:35;;;;;;;13.77;11.20;;;;;;;25.17;76.20;99320.22;5034566;28;20197;-69
2023/07/04 02:49:02;;;;;;;12.67;10.90;;;;;;;25.11;77.12;99316.75;5034827;28;20255;-71
2023/07/04 02:51:29;;;;;;;12.53;11.17;;;;;;;25.12;77.16;99320.31;5034943;28;20255;-69
2023/07/04 02:53:57;;;;;;;12.47;11.37;;;;;;;25.19;77.34;99320.75;5034961;28;20255;-69
2023/07/04 02:56:24;;;;;;;14.93;11.23;;;;;;;25.28;76.68;99319.81;5034137;28;20193;-70
2023/07/04 02:58:50;;;;;;;12.57;11.27;;;;;;;25.32;76.28;99320.03;5034374;28;20625;-69
2023/07/04 03:01:17;;;;;;;17.93;11.23;;;;;;;25.29;76.50;99321.44;5034673;28;20220;-70
2023/07/04 03:03:44;;;;;;;14.27;11.30;;;;;;;25.27;76.91;99311.91;5034634;28;20197;-70
2023/07/04 03:06:10;;;;;;;12.40;11.10;;;;;;;25.30;75.91;99314.06;5033854;28;20259;-70
2023/07/04 03:08:37;;;;;;;13.90;11.07;;;;;;;25.26;76.37;99315.72;5034169;28;20665;-70
2023/07/04 03:11:05;;;;;;;14.07;11.73;;;;;;;25.23;77.04;99308.19;5034656;28;20201;-70
2023/07/04 03:13:32;;;;;;;16.57;11.10;;;;;;;25.26;76.60;99308.38;5034079;28;20632;-70
2023/07/04 03:15:58;;;;;;;15.97;10.33;;;;;;;25.28;76.50;99308.94;5033382;28;20259;-71
2023/07/04 03:18:25;;;;;;;11.77;10.13;;;;;;;25.36;77.11;99321.88;5033945;28;20677;-70
2023/07/04 03:20:52;;;;;;;18.20;11.90;;;;;;;25.48;76.25;99321.41;5034271;28;20291;-70
2023/07/04 03:23:19;;;;;;;15.83;10.57;;;;;;;25.60;75.87;99321.75;5034262;28;20280;-71
2023/07/04 03:25:45;;;;;;;13.20;10.60;;;;;;;25.70;74.74;99322.38;5033726;28;20197;-70
2023/07/04 03:28:13;;;;;;;14.13;11.10;;;;;;;25.68;74.49;99319.13;5033924;28;20197;-69
2023/07/04 03:30:40;;;;;;;12.13;10.87;;;;;;;25.63;75.69;99321.16;5034097;28;20197;-69
2023/07/04 03:33:07;;;;;;;12.20;10.60;;;;;;;25.66;75.39;99321.38;5033618;28;20229;-70
2023/07/04 03:35:33;;;;;;;12.47;11.30;;;;;;;25.75;74.90;99324.19;5033115;28;20742;-69
2023/07/04 03:38:00;;;;;;;13.13;11.70;;;;;;;25.82;74.37;99320.00;5034429;28;20216;-69
2023/07/04 03:40:27;;;;;;;13.83;12.47;;;;;;;25.82;73.73;99324.63;5033922;28;20283;-69
2023/07/04 03:42:53;;;;;;;14.67;11.27;;;;;;;25.79;73.90;99325.22;5033116;28;20201;-69
2023/07/04 03:45:21;;;;;;;16.17;11.87;;;;;;;25.77;73.56;99332.88;5033142;28;20669;-70
2023/07/04 03:47:48;;;;;;;17.97;11.97;;;;;;;25.80;73.78;99343.97;5033984;28;20243;-69
2023/07/04 03:50:15;;;;;;;13.77;12.47;;;;;;;25.77;74.08;99335.59;5033751;28;20635;-70
2023/07/04 03:52:42;;;;;;;20.63;11.93;;;;;;;25.75;74.02;99340.53;5032995;28;20196;-69
2023/07/04 03:55:09;;;;;;;17.57;11.67;;;;;;;25.76;75.12;99336.72;5033641;28;20271;-70
2023/07/04 03:57:35;;;;;;;13.43;11.83;;;;;;;25.84;73.34;99339.53;5033361;28;20197;-70
2023/07/04 04:00:05;;;;;;;14.70;11.37;;;;;;;25.83;72.42;99342.56;5033154;28;20290;-72
2023/07/04 04:02:33;;;;;;;12.03;10.57;;;;;;;25.74;73.28;99341.63;5032920;28;20193;-71
2023/07/04 04:05:00;;;;;;;14.00;11.47;;;;;;;25.74;72.99;99339.72;5033484;28;20264;-71
2023/07/04 04:07:27;;;;;;;16.50;10.50;;;;;;;26.11;72.60;99349.72;5033120;28;20200;-71
2023/07/04 04:09:53;;;;;;;14.30;11.13;;;;;;;26.63;69.84;99347.34;5033026;28;20197;-71
2023/07/04 04:12:20;;;;;;;14.73;11.40;;;;;;;27.29;66.83;99360.38;5032194;28;20731;-71
2023/07/04 04:14:47;;;;;;;14.53;11.70;;;;;;;27.88;64.25;99362.75;5032648;28;20189;-72
2023/07/04 04:17:13;;;;;;;11.77;10.37;;;;;;;28.47;63.42;99365.03;5032447;28;20244;-73
2023/07/04 04:19:42;;;;;;;10.10;9.07;;;;;;;29.23;60.81;99367.16;5032539;28;20203;-72
2023/07/04 04:22:08;;;;;;;9.43;8.63;;;;;;;29.94;58.27;99373.91;5033228;28;20193;-72
2023/07/04 04:24:37;;;;;;;18.47;9.93;;;;;;;30.54;54.86;99375.34;5033188;28;20194;-72
2023/07/04 04:27:08;;;;;;;15.03;10.10;;;;;;;31.13;53.36;99374.25;5033100;28;20197;-71
2023/07/04 04:29:35;;;;;;;15.73;9.20;;;;;;;31.69;51.09;99387.38;5033009;28;20185;-71
2023/07/04 04:32:01;;;;;;;9.40;8.60;;;;;;;32.26;48.53;99385.53;5032682;28;20287;-73
2023/07/04 04:34:28;;;;;;;10.53;9.13;;;;;;;32.64;47.50;99386.09;5031162;28;20681;-71
2023/07/04 04:36:56;;;;;;;14.57;8.60;;;;;;;32.95;46.51;99389.06;5041899;28;20201;-73
2023/07/04 04:39:23;;;;;;;12.43;7.90;;;;;;;33.30;45.25;99392.94;5046956;28;20653;-72
2023/07/04 04:41:52;;;;;;;8.23;7.40;;;;;;;33.57;45.04;99393.34;5032310;28;20225;-71
2023/07/04 04:44:20;;;;;;;10.13;7.60;;;;;;;34.02;43.21;99385.59;5032672;28;20201;-73
2023/07/04 04:46:48;;;;;;;7.57;6.87;;;;;;;34.07;43.80;99386.16;5031414;28;20280;-76
2023/07/04 04:49:17;;;;;;;8.48;7.05;;;;;;;34.37;42.39;99390.13;5032562;28;20696;-76
2023/07/04 04:51:44;;;;;;;8.20;7.53;;;;;;;34.53;41.40;99387.38;5030183;28;20289;-77
2023/07/04 04:54:13;;;;;;;9.18;7.97;;;;;;;35.10;39.36;99384.81;5029988;28;20197;-74
2023/07/04 04:56:43;;;;;;;10.02;7.57;;;;;;;35.06;40.18;99390.28;5031065;28;20193;-72
2023/07/04 04:59:11;;;;;;;18.75;8.93;;;;;;;35.31;39.10;99388.91;5031072;28;20229;-72
2023/07/04 05:01:38;;;;;;;10.40;7.55;;;;;;;35.23;39.23;99383.56;5030427;28;20225;-74
2023/07/04 05:04:05;;;;;;;10.02;6.65;;;;;;;35.34;39.55;99390.13;5026870;28;20197;-74
2023/07/04 05:06:32;;;;;;;8.25;7.00;;;;;;;35.67;38.55;99388.47;5030158;28;20243;-74
2023/07/04 05:08:59;;;;;;;12.88;7.80;;;;;;;35.77;38.08;99392.66;5031746;28;20193;-73
2023/07/04 05:11:27;;;;;;;8.63;7.32;;;;;;;35.98;38.12;99398.63;5030473;28;20201;-74
2023/07/04 05:13:54;;;;;;;11.85;7.65;;;;;;;36.19;37.79;99397.06;5028580;28;20267;-74
2023/07/04 05:16:22;;;;;;;11.13;7.10;;;;;;;36.40;36.84;99397.47;5029804;28;20255;-75
2023/07/04 05:18:51;;;;;;;13.13;7.32;;;;;;;36.45;36.97;99396.34;5031047;28;20185;-75
2023/07/04 05:21:20;;;;;;;8.55;7.57;;;;;;;36.80;35.68;99396.97;5031417;28;20274;-73
2023/07/04 05:23:48;;;;;;;10.43;8.48;;;;;;;36.87;35.57;99402.63;5030463;28;20208;-73
2023/07/04 05:26:17;;;;;;;8.55;7.72;;;;;;;36.74;35.67;99390.13;5029250;28;20247;-75
2023/07/04 05:28:45;;;;;;;9.07;8.07;;;;;;;36.61;36.02;99400.59;5030485;28;20189;-76
2023/07/04 05:31:14;;;;;;;9.55;8.43;;;;;;;36.47;35.89;99396.78;5045389;28;20291;-76
2023/07/04 05:33:41;;;;;;;12.05;7.88;;;;;;;36.72;35.63;99400.78;5030048;28;20675;-75
2023/07/04 05:36:09;;;;;;;7.80;7.20;;;;;;;36.85;35.12;99400.22;5031362;28;20315;-76
2023/07/04 05:38:37;;;;;;;8.55;7.85;;;;;;;36.71;35.28;99402.75;5035896;28;20736;-78
2023/07/04 05:41:07;;;;;;;10.63;7.95;;;;;;;36.81;35.38;99396.59;5050966;28;20262;-76
2023/07/04 05:43:34;;;;;;;8.77;8.02;;;;;;;36.81;35.37;99404.09;5051569;28;20274;-76
2023/07/04 05:46:03;;;;;;;16.00;8.15;;;;;;;37.02;34.88;99404.41;5049986;28;20193;-76
2023/07/04 05:48:29;;;;;;;10.50;8.13;;;;;;;36.84;35.48;99408.91;5050060;28;20219;-76
2023/07/04 05:50:58;;;;;;;8.13;7.35;;;;;;;37.19;35.11;99404.72;5049429;28;20196;-77
2023/07/04 05:53:26;;;;;;;9.32;7.70;;;;;;;36.91;34.72;99390.41;5049123;28;20193;-75
2023/07/04 05:55:54;;;;;;;8.55;7.95;;;;;;;37.29;34.12;99403.28;5048861;28;20278;-73
2023/07/04 05:58:20;;;;;;;8.82;7.97;;;;;;;36.90;34.75;99404.63;5048827;28;20231;-76
2023/07/04 06:00:48;;;;;;;8.65;7.97;;;;;;;36.87;34.75;99402.63;5049283;28;20238;-75
2023/07/04 06:03:17;;;;;;;10.13;8.77;;;;;;;36.90;34.88;99393.56;5050136;28;20197;-76
2023/07/04 06:05:44;;;;;;;8.27;7.60;;;;;;;36.71;35.38;99399.97;5042055;28;20623;-75
2023/07/04 06:08:11;;;;;;;8.25;7.78;;;;;;;36.58;35.71;99398.56;5031443;28;20251;-74
2023/07/04 06:10:38;;;;;;;8.88;8.27;;;;;;;36.52;35.77;99397.28;5034955;28;20201;-74
2023/07/04 06:13:05;;;;;;;8.02;7.43;;;;;;;36.52;35.74;99393.69;5034279;28;20251;-75
2023/07/04 06:15:32;;;;;;;10.02;8.77;;;;;;;36.51;35.73;99394.88;5034434;28;20197;-79
2023/07/04 06:17:59;;;;;;;9.48;7.63;;;;;;;36.80;35.65;99397.78;5033920;28;20681;-75
2023/07/04 06:20:27;;;;;;;9.00;7.57;;;;;;;36.80;35.45;99396.97;5034267;28;20307;-76
2023/07/04 06:22:54;;;;;;;15.98;9.02;;;;;;;36.84;34.56;99404.19;5033906;28;20205;-75
2023/07/04 06:25:21;;;;;;;7.45;6.95;;;;;;;36.66;35.43;99388.41;5033950;28;20261;-77
2023/07/04 06:27:48;;;;;;;8.50;7.15;;;;;;;36.64;35.84;99391.56;5034005;28;20681;-77
2023/07/04 06:30:14;;;;;;;9.57;8.55;;;;;;;36.60;34.39;99389.88;5033358;28;20189;-73
2023/07/04 06:32:41;;;;;;;15.05;9.40;;;;;;;36.43;34.50;99387.63;5033487;28;20290;-72
2023/07/04 06:35:09;;;;;;;9.52;8.40;;;;;;;36.25;35.19;99381.75;5033435;28;20193;-74
2023/07/04 06:37:37;;;;;;;8.55;7.95;;;;;;;36.09;36.40;99389.34;5033477;28;20197;-73
2023/07/04 06:40:05;;;;;;;10.30;9.35;;;;;;;36.23;35.01;99383.31;5033331;28;20310;-73
2023/07/04 06:42:33;;;;;;;9.05;8.05;;;;;;;36.27;35.71;99378.63;5034078;28;20225;-73
2023/07/04 06:44:59;;;;;;;11.43;9.48;;;;;;;36.55;34.81;99384.66;5033655;28;20279;-72
2023/07/04 06:47:26;;;;;;;8.25;7.60;;;;;;;36.58;35.60;99379.16;5033757;28;20664;-72
2023/07/04 06:49:53;;;;;;;27.15;9.40;;;;;;;36.65;34.63;99387.59;5033097;28;20681;-75
2023/07/04 06:52:20;;;;;;;13.73;8.75;;;;;;;36.47;33.91;99380.16;5033634;28;20247;-73
2023/07/04 06:54:51;;;;;;;9.40;8.30;;;;;;;36.42;34.93;99377.72;5033066;28;20194;-73
2023/07/04 06:57:18;;;;;;;9.30;8.50;;;;;;;36.10;36.28;99365.25;5033633;28;20581;-75
2023/07/04 06:59:45;;;;;;;11.48;8.73;;;;;;;36.11;36.14;99358.53;5033347;28;20251;-74
2023/07/04 07:02:14;;;;;;;31.88;10.07;;;;;;;36.34;34.94;99373.22;5033106;28;20256;-75
2023/07/04 07:04:41;;;;;;;12.75;9.05;;;;;;;36.57;34.82;99366.50;5032050;28;20204;-72
2023/07/04 07:07:10;;;;;;;10.43;7.68;;;;;;;36.77;34.11;99368.06;5033210;28;20197;-72
2023/07/04 07:09:40;;;;;;;12.65;9.02;;;;;;;36.74;34.44;99360.47;5032452;28;20657;-73
2023/07/04 07:12:09;;;;;;;9.48;8.57;;;;;;;36.79;34.52;99365.69;5033396;28;20205;-72
2023/07/04 07:14:37;;;;;;;10.80;8.65;;;;;;;36.65;35.10;99364.66;5033440;28;20259;-72
2023/07/04 07:17:04;;;;;;;9.15;8.38;;;;;;;36.59;35.31;99364.16;5032903;28;20259;-73
2023/07/04 07:19:31;;;;;;;9.38;8.52;;;;;;;36.28;35.05;99364.44;5032885;28;20197;-72
2023/07/04 07:21:59;;;;;;;11.15;8.50;;;;;;;36.32;35.12;99358.94;5033700;28;20367;-72
2023/07/04 07:24:26;;;;;;;9.95;9.00;;;;;;;36.49;35.28;99361.22;5031705;28;20193;-72
2023/07/04 07:26:53;;;;;;;8.68;8.05;;;;;;;36.69;35.00;99368.31;5031437;28;20201;-76
2023/07/04 07:29:21;;;;;;;8.95;8.15;;;;;;;36.92;34.66;99357.97;5033261;28;20186;-73
2023/07/04 07:31:50;;;;;;;9.20;8.43;;;;;;;37.01;34.56;99358.50;5031122;28;20778;-72
2023/07/04 07:34:17;;;;;;;10.50;8.45;;;;;;;37.03;33.92;99356.19;5031983;28;20688;-71
2023/07/04 07:36:45;;;;;;;9.57;8.68;;;;;;;36.97;33.79;99360.44;5032852;28;20625;-72
2023/07/04 07:39:14;;;;;;;10.43;8.60;;;;;;;36.87;34.33;99358.31;5031575;28;20542;-72
2023/07/04 07:41:43;;;;;;;9.25;8.68;;;;;;;36.91;33.26;99356.41;5030919;28;20577;-73
2023/07/04 07:44:11;;;;;;;15.07;8.75;;;;;;;36.80;33.67;99352.66;5030568;28;20288;-71
2023/07/04 07:46:39;;;;;;;11.63;9.05;;;;;;;37.00;33.64;99351.38;5031415;28;20255;-70
2023/07/04 07:49:05;;;;;;;9.70;8.80;;;;;;;37.26;33.93;99343.06;5030882;28;20260;-69
2023/07/04 07:51:33;;;;;;;8.88;8.20;;;;;;;37.52;31.55;99351.31;5031510;28;20201;-70
2023/07/04 07:54:02;;;;;;;9.02;7.43;;;;;;;37.63;31.48;99346.72;5030967;28;20251;-70
2023/07/04 07:56:33;;;;;;;8.75;8.18;;;;;;;37.80;31.73;99340.56;5030659;28;20200;-71
2023/07/04 07:59:00;;;;;;;8.93;8.23;;;;;;;37.44;31.70;99338.53;5031148;28;20200;-71
2023/07/04 08:01:30;;;;;;;9.65;8.77;;;;;;;37.24;31.90;99340.66;5031087;28;20311;-70
2023/07/04 08:03:59;;;;;;;17.77;9.02;;;;;;;36.94;32.42;99336.22;5029123;28;20201;-67
2023/07/04 08:06:27;;;;;;;11.55;8.50;;;;;;;37.03;32.67;99348.66;5030787;28;20287;-67
2023/07/04 08:08:56;;;;;;;8.48;7.90;;;;;;;37.01;33.38;99339.13;5029570;28;20201;-67
2023/07/04 08:11:24;;;;;;;8.35;7.63;;;;;;;36.65;33.65;99336.94;5029971;28;20197;-67
2023/07/04 08:13:51;;;;;;;8.95;8.35;;;;;;;36.58;33.72;99347.94;5030706;28;20193;-66
2023/07/04 08:16:21;;;;;;;9.93;9.00;;;;;;;36.33;33.75;99339.22;5029336;28;20722;-66
2023/07/04 08:18:48;;;;;;;8.93;8.13;;;;;;;36.51;33.39;99345.03;5029985;28;20201;-67
2023/07/04 08:21:17;;;;;;;8.23;7.65;;;;;;;36.28;33.99;99342.28;5030434;28;20290;-68
2023/07/04 08:23:43;;;;;;;13.30;9.10;;;;;;;35.81;34.39;99327.19;5030123;28;20507;-68
2023/07/04 08:26:16;;;;;;;8.93;8.20;;;;;;;35.77;34.80;99323.53;5022542;28;20202;-78
2023/07/04 08:28:42;;;;;;;9.38;8.60;;;;;;;36.03;35.31;99331.91;5030533;28;20275;-74
2023/07/04 08:31:10;;;;;;;10.02;9.23;;;;;;;36.47;34.21;99338.66;5029451;28;20283;-75
2023/07/04 08:33:37;;;;;;;11.80;9.15;;;;;;;36.76;33.18;99341.53;5030402;28;20229;-73
2023/07/04 08:36:06;;;;;;;11.95;10.48;;;;;;;36.60;34.29;99337.28;5030165;28;20194;-76
2023/07/04 08:38:34;;;;;;;10.57;8.93;;;;;;;36.25;34.13;99342.25;5029498;28;20658;-79
2023/07/04 08:41:01;;;;;;;9.10;8.38;;;;;;;36.10;33.35;99340.34;5031265;28;20193;-75
2023/07/04 08:43:36;;;;;;;8.10;7.38;;;;;;;35.89;33.23;99337.19;5029285;28;20810;-69
2023/07/04 08:46:05;;;;;;;8.85;8.25;;;;;;;35.82;34.31;99331.53;5028080;28;20188;-71
2023/07/04 08:48:34;;;;;;;9.15;8.35;;;;;;;35.91;34.63;99338.44;5029335;28;20308;-69
2023/07/04 08:51:04;;;;;;;10.27;9.35;;;;;;;35.58;35.75;99334.59;5028285;28;20202;-69
2023/07/04 08:53:32;;;;;;;9.77;9.07;;;;;;;35.97;35.41;99325.88;5029157;28;20202;-75
2023/07/04 08:56:08;;;;;;;9.10;8.30;;;;;;;36.00;34.31;99329.88;5029258;28;20271;-76
2023/07/04 08:58:41;;;;;;;8.65;7.97;;;;;;;36.30;33.46;99328.88;5029149;28;20193;-74
2023/07/04 09:01:15;;;;;;;8.80;8.10;;;;;;;36.38;34.62;99318.75;5026653;28;20662;-73
2023/07/04 09:03:50;;;;;;;10.60;8.32;;;;;;;36.58;33.99;99318.25;5028973;28;20193;-70
2023/07/04 09:06:32;;;;;;;8.98;8.15;;;;;;;36.34;34.62;99312.34;5029079;28;20263;-72
2023/07/04 09:09:09;;;;;;;8.63;7.80;;;;;;;36.53;33.68;99309.47;5028890;28;20520;-72
2023/07/04 09:11:37;;;;;;;8.63;8.13;;;;;;;36.21;35.66;99313.69;5029282;28;20251;-73
2023/07/04 09:14:13;;;;;;;9.05;8.43;;;;;;;36.26;35.42;99321.69;5029457;28;20201;-69
2023/07/04 09:16:45;;;;;;;8.80;7.85;;;;;;;36.53;34.59;99315.81;5028916;28;20273;-68
2023/07/04 09:19:13;;;;;;;9.30;8.38;;;;;;;36.52;33.82;99325.31;5027226;28;20189;-69
2023/07/04 09:21:42;;;;;;;8.63;7.93;;;;;;;36.72;32.81;99324.06;5028856;28;20229;-70
2023/07/04 09:24:09;;;;;;;8.18;7.57;;;;;;;36.16;33.39;99322.28;5028371;28;20204;-70
2023/07/04 09:26:42;;;;;;;9.13;8.18;;;;;;;36.01;34.33;99321.22;5028286;28;20248;-72
2023/07/04 09:29:10;;;;;;;8.52;7.68;;;;;;;35.59;34.48;99330.63;5028842;28;20661;-70
2023/07/04 09:31:41;;;;;;;9.05;8.35;;;;;;;36.01;33.50;99326.75;5025980;28;20228;-71
2023/07/04 09:34:14;;;;;;;9.60;8.88;;;;;;;35.95;33.92;99317.16;5028762;28;20263;-71
2023/07/04 09:36:41;;;;;;;10.00;9.32;;;;;;;35.91;34.61;99326.56;5027889;28;20193;-73
2023/07/04 09:39:09;;;;;;;16.38;10.98;;;;;;;35.70;34.95;99320.59;5027912;28;20200;-70
2023/07/04 09:41:40;;;;;;;10.27;9.35;;;;;;;35.90;34.24;99319.44;5030542;28;20230;-71
2023/07/04 09:44:17;;;;;;;10.60;9.80;;;;;;;35.63;35.63;99323.22;5032387;28;20193;-71
2023/07/04 09:46:52;;;;;;;14.35;10.02;;;;;;;35.89;35.14;99317.84;5032335;28;20193;-67
2023/07/04 09:49:23;;;;;;;12.10;10.48;;;;;;;36.25;33.93;99331.97;5031816;28;20656;-69
2023/07/04 09:52:02;;;;;;;12.32;11.32;;;;;;;36.12;34.42;99322.22;5032593;28;20208;-66
2023/07/04 09:54:29;;;;;;;11.65;10.80;;;;;;;35.87;34.91;99309.09;5032442;28;20639;-68
2023/07/04 09:56:57;;;;;;;10.63;9.73;;;;;;;36.00;34.53;99303.03;5033694;28;20201;-67
2023/07/04 09:59:26;;;;;;;10.77;10.07;;;;;;;36.09;33.96;99305.56;5032916;28;20201;-68
2023/07/04 10:01:55;;;;;;;9.40;8.63;;;;;;;35.56;34.50;99309.28;5033219;28;20302;-69
2023/07/04 10:04:27;;;;;;;10.13;9.32;;;;;;;35.37;36.16;99312.03;5031788;28;20197;-70
2023/07/04 10:06:57;;;;;;;10.25;8.88;;;;;;;35.68;34.12;99295.31;5030058;28;20204;-68
2023/07/04 10:09:24;;;;;;;8.65;8.05;;;;;;;36.01;34.32;99304.63;5033030;28;20236;-68
2023/07/04 10:11:53;;;;;;;8.23;7.53;;;;;;;36.23;33.13;99311.38;5032501;28;20263;-71
2023/07/04 10:14:34;;;;;;;9.25;7.88;;;;;;;36.24;32.40;99307.41;5032073;28;20662;-67
2023/07/04 10:17:09;;;;;;;8.10;7.38;;;;;;;36.45;32.28;99296.69;5032196;28;20267;-71
2023/07/04 10:19:41;;;;;;;8.43;6.90;;;;;;;36.44;31.28;99289.56;5031024;28;20197;-68
2023/07/04 10:22:08;;;;;;;8.30;7.68;;;;;;;36.54;31.46;99283.41;5025004;28;20224;-68
2023/07/04 10:24:36;;;;;;;8.30;7.90;;;;;;;36.45;32.28;99274.53;5031907;28;20259;-69
2023/07/04 10:27:06;;;;;;;9.48;8.70;;;;;;;36.58;33.14;99273.19;5032122;28;20193;-70
2023/07/04 10:29:49;;;;;;;9.75;8.88;;;;;;;36.77;33.12;99281.41;5032347;28;20197;-71
2023/07/04 10:32:18;;;;;;;8.85;8.15;;;;;;;36.69;32.73;99263.06;5032442;28;20290;-69
2023/07/04 10:34:48;;;;;;;9.75;9.15;;;;;;;36.23;32.83;99270.66;5031530;28;20197;-69
2023/07/04 10:37:22;;;;;;;9.48;8.73;;;;;;;36.17;33.64;99260.25;5032423;28;20251;-68
2023/07/04 10:39:50;;;;;;;9.02;8.25;;;;;;;36.03;32.09;99273.84;5034910;28;20288;-68
2023/07/04 10:42:24;;;;;;;8.02;7.53;;;;;;;36.22;32.57;99266.28;5031174;28;20570;-70
2023/07/04 10:44:56;;;;;;;8.50;7.90;;;;;;;36.67;30.98;99265.41;5030934;28;20201;-69
2023/07/04 10:47:28;;;;;;;8.65;8.25;;;;;;;36.91;30.90;99259.44;5030815;28;20224;-69
2023/07/04 10:50:00;;;;;;;8.40;7.90;;;;;;;36.60;32.00;99260.56;5023279;28;20192;-69
2023/07/04 10:52:32;;;;;;;10.02;8.40;;;;;;;36.59;32.46;99258.94;5030751;28;20201;-71
2023/07/04 10:54:59;;;;;;;8.43;7.68;;;;;;;36.56;32.22;99259.72;5028751;28;20201;-69
2023/07/04 10:57:30;;;;;;;7.57;6.97;;;;;;;36.41;31.71;99254.31;5029491;28;20204;-70
2023/07/04 11:00:01;;;;;;;7.93;7.43;;;;;;;36.06;33.02;99239.91;5030829;28;20251;-74
2023/07/04 11:02:35;;;;;;;7.88;7.00;;;;;;;36.47;31.48;99242.59;5031512;28;20245;-71
2023/07/04 11:05:11;;;;;;;8.48;7.97;;;;;;;36.59;31.83;99241.56;5023294;28;20213;-70
2023/07/04 11:07:42;;;;;;;8.70;8.20;;;;;;;36.28;33.17;99236.34;5031515;28;20197;-70
2023/07/04 11:10:11;;;;;;;8.52;7.85;;;;;;;35.83;33.68;99239.09;5030444;28;20189;-70
2023/07/04 11:12:40;;;;;;;8.40;7.70;;;;;;;36.11;33.20;99231.28;5030752;28;20197;-70
2023/07/04 11:15:21;;;;;;;8.45;7.93;;;;;;;36.28;32.23;99220.53;5030771;28;20189;-69
2023/07/04 11:17:49;;;;;;;7.88;7.43;;;;;;;36.21;33.19;99222.38;5024364;28;20197;-69
2023/07/04 11:20:19;;;;;;;9.13;8.32;;;;;;;36.09;32.64;99217.03;5031081;28;20263;-72
2023/07/04 11:22:54;;;;;;;8.20;7.70;;;;;;;36.19;32.70;99211.69;5030834;28;20225;-70
2023/07/04 11:25:34;;;;;;;10.35;7.75;;;;;;;36.32;32.90;99198.44;5030340;28;20192;-70
2023/07/04 11:28:19;;;;;;;8.18;7.68;;;;;;;36.36;32.33;99210.38;5030548;28;20197;-71
2023/07/04 11:30:49;;;;;;;8.63;7.93;;;;;;;35.71;33.66;99201.34;5030560;28;20243;-70